createdAt,value
2022-12-16T00:02:07.849Z,33.70
2022-12-16T00:04:36.357Z,37.23
2022-12-16T00:07:05.033Z,36.17
2022-12-16T00:09:33.532Z,35.23
2022-12-16T00:12:02.328Z,33.37
2022-12-16T00:14:33.365Z,33.53
2022-12-16T00:17:02.301Z,32.17
2022-12-16T00:19:31.574Z,33.67
2022-12-16T00:22:00.129Z,31.87
2022-12-16T00:24:31.646Z,32.40
2022-12-16T00:27:00.130Z,32.17
2022-12-16T00:29:28.954Z,31.57
2022-12-16T00:31:58.930Z,33.43
2022-12-16T00:34:28.175Z,31.57
2022-12-16T00:36:57.133Z,31.63
2022-12-16T00:39:26.047Z,32.30
2022-12-16T00:41:54.425Z,31.53
2022-12-16T00:44:23.880Z,32.23
2022-12-16T00:46:52.208Z,31.80
2022-12-16T00:49:22.312Z,31.93
2022-12-16T00:51:51.113Z,33.17
2022-12-16T00:54:19.928Z,33.33
2022-12-16T00:56:49.089Z,32.50
2022-12-16T00:59:17.907Z,32.80
2022-12-16T01:01:47.023Z,31.37
2022-12-16T01:04:15.538Z,31.63
2022-12-16T01:06:47.746Z,32.70
2022-12-16T01:09:16.226Z,32.43
2022-12-16T01:11:44.834Z,31.57
2022-12-16T01:14:13.234Z,31.93
2022-12-16T01:16:42.297Z,31.60
2022-12-16T01:19:11.443Z,33.37
2022-12-16T01:21:39.854Z,33.50
2022-12-16T01:24:11.711Z,32.77
2022-12-16T01:26:40.678Z,33.20
2022-12-16T01:29:09.812Z,33.83
2022-12-16T01:31:38.300Z,34.17
2022-12-16T01:34:07.696Z,34.73
2022-12-16T01:36:36.713Z,33.77
2022-12-16T01:39:05.981Z,35.80
2022-12-16T01:41:36.318Z,35.93
2022-12-16T01:44:15.533Z,35.70
2022-12-16T01:46:51.032Z,36.07
2022-12-16T01:49:25.542Z,34.87
2022-12-16T01:51:56.237Z,36.03
2022-12-16T01:54:29.493Z,35.43
2022-12-16T01:57:03.714Z,37.07
2022-12-16T01:59:35.324Z,34.47
2022-12-16T02:02:05.109Z,36.50
2022-12-16T02:04:33.980Z,37.80
2022-12-16T02:07:03.166Z,38.40
2022-12-16T02:09:32.195Z,34.33
2022-12-16T02:12:18.908Z,37.73
2022-12-16T02:15:10.789Z,37.80
2022-12-16T02:17:48.285Z,37.83
2022-12-16T02:20:59.068Z,37.30
2022-12-16T02:23:55.430Z,37.87
2022-12-16T02:27:07.543Z,37.47
2022-12-16T02:30:05.787Z,38.13
2022-12-16T02:32:46.765Z,35.60
2022-12-16T02:35:26.648Z,37.93
2022-12-16T02:38:09.415Z,36.77
2022-12-16T02:40:45.369Z,36.83
2022-12-16T02:43:20.149Z,38.80
2022-12-16T02:45:50.353Z,41.50
2022-12-16T02:48:20.178Z,41.17
2022-12-16T02:50:51.823Z,39.80
2022-12-16T02:53:21.884Z,40.73
2022-12-16T02:56:02.659Z,41.07
2022-12-16T02:58:38.791Z,37.97
2022-12-16T03:01:14.773Z,39.57
2022-12-16T03:03:51.867Z,40.00
2022-12-16T03:06:22.584Z,39.60
2022-12-16T03:08:56.079Z,39.90
2022-12-16T03:11:27.534Z,40.03
2022-12-16T03:13:57.868Z,39.00
2022-12-16T03:16:31.132Z,41.10
2022-12-16T03:19:04.401Z,40.13
2022-12-16T03:21:37.645Z,40.43
2022-12-16T03:24:11.260Z,40.30
2022-12-16T03:26:45.443Z,40.53
2022-12-16T03:29:17.841Z,41.07
2022-12-16T03:31:50.751Z,41.87
2022-12-16T03:34:29.691Z,42.37
2022-12-16T03:37:04.181Z,41.27
2022-12-16T03:39:36.139Z,39.03
2022-12-16T03:42:07.210Z,41.57
2022-12-16T03:44:37.431Z,41.67
2022-12-16T03:47:06.911Z,42.13
2022-12-16T03:49:37.097Z,40.40
2022-12-16T03:52:05.882Z,43.13
2022-12-16T03:54:35.271Z,42.37
2022-12-16T03:57:04.287Z,41.70
2022-12-16T03:59:32.648Z,41.00
2022-12-16T04:02:01.980Z,42.20
2022-12-16T04:04:30.460Z,40.57
2022-12-16T04:07:18.229Z,43.17
2022-12-16T04:09:47.650Z,40.53
2022-12-16T04:12:33.769Z,41.50
2022-12-16T04:15:34.541Z,41.07
2022-12-16T04:18:20.626Z,43.57
2022-12-16T04:21:10.849Z,42.60
2022-12-16T04:24:06.442Z,41.30
2022-12-16T04:26:55.803Z,43.23
2022-12-16T04:29:24.719Z,39.60
2022-12-16T04:31:53.561Z,42.63
2022-12-16T04:34:29.403Z,41.93
2022-12-16T04:37:17.442Z,42.60
2022-12-16T04:40:05.458Z,41.97
2022-12-16T04:42:51.850Z,41.50
2022-12-16T04:45:38.597Z,42.07
2022-12-16T04:48:25.369Z,40.70
2022-12-16T04:51:11.291Z,40.87
2022-12-16T04:53:57.549Z,39.97
2022-12-16T04:56:44.676Z,41.40
2022-12-16T04:59:30.534Z,42.23
2022-12-16T05:02:16.985Z,40.83
2022-12-16T05:05:02.963Z,42.13
2022-12-16T05:07:49.369Z,39.03
2022-12-16T05:10:44.123Z,39.80
2022-12-16T05:13:32.196Z,39.13
2022-12-16T05:16:18.275Z,40.90
2022-12-16T05:19:03.997Z,41.23
2022-12-16T05:21:50.132Z,39.20
2022-12-16T05:24:36.031Z,39.60
2022-12-16T05:27:21.938Z,38.70
2022-12-16T05:30:09.245Z,39.17
2022-12-16T05:32:54.944Z,41.40
2022-12-16T05:35:42.181Z,41.13
2022-12-16T05:38:28.330Z,39.10
2022-12-16T05:41:25.903Z,39.13
2022-12-16T05:44:12.732Z,40.40
2022-12-16T05:47:00.125Z,41.40
2022-12-16T05:49:47.012Z,42.00
2022-12-16T05:52:32.020Z,40.83
2022-12-16T05:55:18.806Z,40.33
2022-12-16T05:58:07.703Z,39.40
2022-12-16T06:00:55.512Z,40.33
2022-12-16T06:03:42.895Z,40.80
2022-12-16T06:06:30.050Z,40.33
2022-12-16T06:09:16.176Z,41.40
2022-12-16T06:12:02.936Z,39.97
2022-12-16T06:14:48.672Z,41.17
2022-12-16T06:17:35.653Z,41.40
2022-12-16T06:20:24.402Z,41.60
2022-12-16T06:23:11.546Z,40.47
2022-12-16T06:25:58.266Z,39.77
2022-12-16T06:28:46.034Z,39.10
2022-12-16T06:31:32.842Z,39.33
2022-12-16T06:34:18.701Z,37.93
2022-12-16T06:37:07.697Z,37.40
2022-12-16T06:39:53.888Z,39.77
2022-12-16T06:42:39.723Z,40.13
2022-12-16T06:45:32.907Z,38.90
2022-12-16T06:48:21.091Z,38.67
2022-12-16T06:51:08.046Z,38.00
2022-12-16T06:53:55.107Z,38.83
2022-12-16T06:56:41.214Z,40.50
2022-12-16T06:59:27.433Z,38.67
2022-12-16T07:02:14.049Z,39.23
2022-12-16T07:04:59.990Z,40.57
2022-12-16T07:07:46.405Z,38.83
2022-12-16T07:10:33.646Z,41.47
2022-12-16T07:13:28.314Z,40.20
2022-12-16T07:16:14.445Z,40.80
2022-12-16T07:19:01.389Z,39.23
2022-12-16T07:21:47.637Z,39.53
2022-12-16T07:24:34.145Z,39.63
2022-12-16T07:27:21.343Z,40.00
2022-12-16T07:30:08.022Z,40.20
2022-12-16T07:32:54.473Z,39.33
2022-12-16T07:35:40.852Z,41.50
2022-12-16T07:38:27.132Z,40.37
2022-12-16T07:41:12.923Z,40.73
2022-12-16T07:44:09.019Z,40.43
2022-12-16T07:46:55.599Z,39.87
2022-12-16T07:49:41.707Z,39.00
2022-12-16T07:52:28.662Z,40.00
2022-12-16T07:55:14.521Z,40.27
2022-12-16T07:58:00.833Z,41.00
2022-12-16T08:00:47.947Z,39.00
2022-12-16T08:03:35.514Z,40.50
2022-12-16T08:06:22.383Z,40.33
2022-12-16T08:09:08.950Z,40.43
2022-12-16T08:11:54.719Z,50.83
2022-12-16T08:14:42.040Z,39.90
2022-12-16T08:17:29.187Z,41.90
2022-12-16T08:20:15.618Z,39.30
2022-12-16T08:23:01.965Z,38.00
2022-12-16T08:25:48.173Z,40.27
2022-12-16T08:28:34.158Z,37.73
2022-12-16T08:31:20.013Z,37.93
2022-12-16T08:34:07.304Z,37.73
2022-12-16T08:36:54.982Z,38.73
2022-12-16T08:39:41.205Z,37.27
2022-12-16T08:42:27.917Z,37.67
2022-12-16T08:45:13.660Z,37.37
2022-12-16T08:48:00.743Z,37.90
2022-12-16T08:50:48.117Z,38.47
2022-12-16T08:53:34.510Z,38.37
2022-12-16T08:56:20.996Z,37.77
2022-12-16T08:59:08.004Z,39.07
2022-12-16T09:01:54.281Z,38.20
2022-12-16T09:04:42.694Z,39.80
2022-12-16T09:07:30.591Z,38.50
2022-12-16T09:10:16.508Z,37.07
2022-12-16T09:13:03.578Z,37.53
2022-12-16T09:15:49.520Z,36.77
2022-12-16T09:18:36.751Z,38.27
2022-12-16T09:21:22.681Z,37.27
2022-12-16T09:24:09.882Z,37.33
2022-12-16T09:26:55.767Z,36.70
2022-12-16T09:29:45.075Z,37.13
2022-12-16T09:32:31.764Z,35.30
2022-12-16T09:35:19.141Z,36.03
2022-12-16T09:38:06.551Z,36.50
2022-12-16T09:40:57.033Z,37.10
2022-12-16T09:43:58.759Z,34.77
2022-12-16T09:46:56.553Z,35.57
2022-12-16T09:49:52.979Z,34.10
2022-12-16T09:52:41.292Z,36.73
2022-12-16T09:55:44.036Z,35.67
2022-12-16T09:58:32.693Z,36.83
2022-12-16T10:01:19.300Z,35.27
2022-12-16T10:04:06.293Z,37.90
2022-12-16T10:07:11.677Z,36.57
2022-12-16T10:10:10.784Z,34.27
2022-12-16T10:13:05.982Z,36.60
2022-12-16T10:16:02.657Z,37.13
2022-12-16T10:19:02.607Z,35.40
2022-12-16T10:21:54.186Z,34.67
2022-12-16T10:24:50.990Z,33.70
2022-12-16T10:27:48.959Z,36.37
2022-12-16T10:30:35.241Z,35.17
2022-12-16T10:33:38.361Z,36.07
2022-12-16T10:36:32.612Z,35.70
2022-12-16T10:39:21.738Z,35.87
2022-12-16T10:42:11.515Z,34.53
2022-12-16T10:45:20.367Z,36.20
2022-12-16T10:48:06.490Z,33.57
2022-12-16T10:50:53.954Z,32.80
2022-12-16T10:53:44.251Z,33.80
2022-12-16T10:56:54.063Z,32.03
2022-12-16T10:59:39.849Z,34.73
2022-12-16T11:02:37.705Z,33.80
2022-12-16T11:05:47.248Z,33.20
2022-12-16T11:08:46.363Z,34.20
2022-12-16T11:11:38.194Z,32.77
2022-12-16T11:14:37.576Z,35.23
2022-12-16T11:17:32.678Z,37.13
2022-12-16T11:20:33.514Z,36.30
2022-12-16T11:23:37.458Z,35.33
2022-12-16T11:26:37.236Z,33.03
2022-12-16T11:29:28.070Z,32.73
2022-12-16T11:32:19.314Z,32.17
2022-12-16T11:35:12.890Z,32.73
2022-12-16T11:38:00.206Z,33.37
2022-12-16T11:40:49.579Z,33.33
2022-12-16T11:43:38.744Z,33.47
2022-12-16T11:46:29.783Z,34.83
2022-12-16T11:49:24.818Z,33.30
2022-12-16T11:52:36.537Z,32.10
2022-12-16T11:56:03.283Z,32.00
2022-12-16T11:58:50.174Z,30.93
2022-12-16T12:01:45.532Z,31.40
2022-12-16T12:04:32.885Z,31.30
2022-12-16T12:07:45.000Z,30.83
2022-12-16T12:10:56.817Z,32.00
2022-12-16T12:14:00.833Z,31.20
2022-12-16T12:16:58.292Z,31.37
2022-12-16T12:19:54.839Z,30.20
2022-12-16T12:22:53.242Z,31.03
2022-12-16T12:25:46.883Z,31.23
2022-12-16T12:28:45.967Z,29.73
2022-12-16T12:31:44.643Z,29.80
2022-12-16T12:34:40.875Z,29.17
2022-12-16T12:37:35.601Z,27.73
2022-12-16T12:40:35.043Z,28.37
2022-12-16T12:43:31.638Z,28.47
2022-12-16T12:46:34.900Z,29.63
2022-12-16T12:49:26.853Z,28.67
2022-12-16T12:52:22.171Z,29.00
2022-12-16T12:55:13.533Z,28.87
2022-12-16T12:58:02.695Z,29.20
2022-12-16T13:00:54.584Z,28.10
2022-12-16T13:03:52.462Z,27.73
2022-12-16T13:06:39.538Z,28.10
2022-12-16T13:09:45.653Z,27.70
2022-12-16T13:12:43.773Z,27.10
2022-12-16T13:15:36.875Z,27.10
2022-12-16T13:18:44.385Z,27.47
2022-12-16T13:22:02.088Z,28.03
2022-12-16T13:24:56.609Z,28.33
2022-12-16T13:27:44.155Z,24.47
2022-12-16T13:30:40.806Z,29.57
2022-12-16T13:33:41.653Z,30.67
2022-12-16T13:36:31.004Z,26.77
2022-12-16T13:39:25.763Z,30.93
2022-12-16T13:42:19.747Z,29.30
2022-12-16T13:45:17.983Z,28.30
2022-12-16T13:48:24.102Z,28.33
2022-12-16T13:51:18.465Z,27.73
2022-12-16T13:54:11.448Z,30.43
2022-12-16T13:57:03.353Z,28.53
2022-12-16T13:59:51.847Z,29.57
2022-12-16T14:02:49.434Z,29.03
2022-12-16T14:05:38.091Z,31.70
2022-12-16T14:08:29.306Z,31.87
2022-12-16T14:11:30.332Z,30.10
2022-12-16T14:14:20.975Z,30.13
2022-12-16T14:17:12.398Z,30.47
2022-12-16T14:20:09.178Z,31.90
2022-12-16T14:23:17.976Z,30.50
2022-12-16T14:26:16.933Z,30.17
2022-12-16T14:29:06.651Z,31.50
2022-12-16T14:31:55.664Z,32.60
2022-12-16T14:34:44.638Z,29.90
2022-12-16T14:37:43.972Z,30.80
2022-12-16T14:40:39.587Z,31.03
2022-12-16T14:43:31.520Z,30.23
2022-12-16T14:46:20.278Z,31.90
2022-12-16T14:49:08.615Z,31.47
2022-12-16T14:52:07.913Z,33.57
2022-12-16T14:54:56.367Z,29.40
2022-12-16T14:57:44.991Z,33.90
2022-12-16T15:00:34.861Z,35.77
2022-12-16T15:03:30.928Z,30.90
2022-12-16T15:06:18.035Z,28.50
2022-12-16T15:09:08.451Z,31.57
2022-12-16T15:12:04.705Z,35.80
2022-12-16T15:14:53.779Z,29.27
2022-12-16T15:17:45.550Z,29.77
2022-12-16T15:20:39.775Z,29.57
2022-12-16T15:23:34.891Z,33.03
2022-12-16T15:26:20.963Z,31.13
2022-12-16T15:29:07.064Z,38.50
2022-12-16T15:32:02.657Z,30.33
2022-12-16T15:34:51.600Z,32.47
2022-12-16T15:37:43.277Z,29.47
2022-12-16T15:40:42.316Z,32.27
2022-12-16T15:43:45.848Z,41.60
2022-12-16T15:46:37.840Z,36.40
2022-12-16T15:49:33.744Z,34.40
2022-12-16T15:52:19.623Z,35.37
2022-12-16T15:55:12.659Z,33.60
2022-12-16T15:57:58.888Z,33.33
2022-12-16T16:00:47.341Z,35.60
2022-12-16T16:03:40.995Z,33.07
2022-12-16T16:06:35.276Z,32.17
2022-12-16T16:09:31.148Z,30.63
2022-12-16T16:12:34.082Z,29.07
2022-12-16T16:15:20.587Z,31.20
2022-12-16T16:18:08.454Z,29.33
2022-12-16T16:20:55.011Z,31.67
2022-12-16T16:23:40.830Z,29.90
2022-12-16T16:26:29.793Z,28.50
2022-12-16T16:29:16.912Z,31.87
2022-12-16T16:32:05.875Z,32.33
2022-12-16T16:34:51.944Z,28.07
2022-12-16T16:37:39.786Z,25.50
2022-12-16T16:40:37.595Z,27.77
2022-12-16T16:43:23.563Z,26.47
2022-12-16T16:46:14.241Z,27.73
2022-12-16T16:49:00.990Z,27.43
2022-12-16T16:51:48.577Z,25.07
2022-12-16T16:54:34.528Z,26.23
2022-12-16T16:57:21.494Z,25.13
2022-12-16T17:00:07.687Z,28.33
2022-12-16T17:02:54.959Z,27.73
2022-12-16T17:05:41.575Z,24.17
2022-12-16T17:08:27.526Z,21.13
2022-12-16T17:11:14.210Z,23.70
2022-12-16T17:13:59.921Z,22.00
2022-12-16T17:16:46.155Z,22.03
2022-12-16T17:19:34.571Z,20.10
2022-12-16T17:22:35.073Z,23.10
2022-12-16T17:25:21.155Z,22.43
2022-12-16T17:28:07.890Z,21.63
2022-12-16T17:30:55.759Z,22.40
2022-12-16T17:33:43.859Z,20.73
2022-12-16T17:36:32.655Z,20.50
2022-12-16T17:39:19.428Z,19.27
2022-12-16T17:42:05.898Z,21.10
2022-12-16T17:44:51.663Z,20.07
2022-12-16T17:47:38.746Z,18.37
2022-12-16T17:50:25.662Z,23.90
2022-12-16T17:53:15.559Z,22.60
2022-12-16T17:56:02.113Z,20.70
2022-12-16T17:58:49.732Z,18.27
2022-12-16T18:01:36.522Z,19.30
2022-12-16T18:04:22.915Z,18.97
2022-12-16T18:07:09.356Z,17.97
2022-12-16T18:09:56.462Z,20.00
2022-12-16T18:12:43.347Z,18.83
2022-12-16T18:15:29.766Z,18.53
2022-12-16T18:18:16.076Z,23.43
2022-12-16T18:21:01.689Z,19.60
2022-12-16T18:23:48.465Z,18.87
2022-12-16T18:26:36.099Z,19.07
2022-12-16T18:29:22.864Z,18.33
2022-12-16T18:32:08.851Z,23.37
2022-12-16T18:34:55.338Z,20.87
2022-12-16T18:37:42.024Z,20.40
2022-12-16T18:40:29.297Z,20.63
2022-12-16T18:43:17.806Z,16.97
2022-12-16T18:46:10.948Z,15.83
2022-12-16T18:48:56.766Z,16.20
2022-12-16T18:51:42.923Z,15.10
2022-12-16T18:54:28.674Z,16.03
2022-12-16T18:57:23.380Z,16.20
2022-12-16T19:00:11.120Z,16.87
2022-12-16T19:02:57.381Z,16.33
2022-12-16T19:05:57.989Z,20.27
2022-12-16T19:08:45.002Z,18.37
2022-12-16T19:11:30.872Z,19.73
2022-12-16T19:14:17.135Z,18.97
2022-12-16T19:17:05.269Z,18.23
2022-12-16T19:19:51.777Z,19.37
2022-12-16T19:22:37.644Z,20.60
2022-12-16T19:25:24.834Z,21.80
2022-12-16T19:28:10.659Z,22.13
2022-12-16T19:30:57.421Z,23.03
2022-12-16T19:33:44.701Z,26.97
2022-12-16T19:36:36.434Z,26.67
2022-12-16T19:39:23.089Z,26.67
2022-12-16T19:42:09.490Z,25.53
2022-12-16T19:44:56.113Z,25.13
2022-12-16T19:47:42.869Z,27.53
2022-12-16T19:50:30.889Z,26.00
2022-12-16T19:53:18.289Z,26.73
2022-12-16T19:56:04.452Z,28.03
2022-12-16T19:58:50.379Z,27.80
2022-12-16T20:01:37.115Z,27.07
2022-12-16T20:04:23.504Z,26.67
2022-12-16T20:07:11.648Z,25.87
2022-12-16T20:09:57.525Z,26.17
2022-12-16T20:12:43.873Z,25.27
2022-12-16T20:15:29.809Z,25.07
2022-12-16T20:18:16.396Z,25.20
2022-12-16T20:21:02.232Z,25.50
2022-12-16T20:23:49.867Z,27.97
2022-12-16T20:26:36.009Z,25.73
2022-12-16T20:29:22.620Z,28.33
2022-12-16T20:32:08.763Z,26.10
2022-12-16T20:34:56.123Z,26.77
2022-12-16T20:37:42.351Z,27.13
2022-12-16T20:40:30.690Z,26.70
2022-12-16T20:43:16.414Z,27.63
2022-12-16T20:46:02.914Z,25.90
2022-12-16T20:48:49.095Z,27.00
2022-12-16T20:51:35.590Z,27.23
2022-12-16T20:54:21.450Z,30.87
2022-12-16T20:57:12.728Z,27.77
2022-12-16T20:59:59.654Z,26.27
2022-12-16T21:02:46.344Z,26.73
2022-12-16T21:05:32.187Z,28.00
2022-12-16T21:08:18.542Z,24.87
2022-12-16T21:11:24.332Z,26.10
2022-12-16T21:14:18.884Z,25.60
2022-12-16T21:17:25.322Z,25.57
2022-12-16T21:20:34.605Z,24.10
2022-12-16T21:23:25.236Z,24.57
2022-12-16T21:26:11.537Z,26.23
2022-12-16T21:28:57.587Z,26.73
2022-12-16T21:31:45.645Z,24.93
2022-12-16T21:34:32.403Z,24.73
2022-12-16T21:37:18.763Z,26.23
2022-12-16T21:40:04.966Z,24.03
2022-12-16T21:42:51.604Z,24.23
2022-12-16T21:45:37.593Z,25.03
2022-12-16T21:48:25.425Z,23.90
2022-12-16T21:51:11.802Z,25.70
2022-12-16T21:54:00.090Z,24.40
2022-12-16T21:56:48.763Z,24.00
2022-12-16T21:59:34.920Z,24.63
2022-12-16T22:02:22.944Z,24.60
2022-12-16T22:05:10.586Z,23.63
2022-12-16T22:07:56.842Z,25.37
2022-12-16T22:10:43.061Z,26.00
2022-12-16T22:13:28.993Z,25.30
2022-12-16T22:16:15.840Z,26.33
2022-12-16T22:19:02.031Z,25.53
2022-12-16T22:21:49.539Z,24.90
2022-12-16T22:24:35.668Z,24.00
2022-12-16T22:27:22.465Z,24.53
2022-12-16T22:30:08.497Z,25.93
2022-12-16T22:32:56.595Z,26.40
2022-12-16T22:35:42.472Z,26.27
2022-12-16T22:38:29.859Z,26.83
2022-12-16T22:41:16.849Z,25.80
2022-12-16T22:44:03.558Z,26.67
2022-12-16T22:46:50.358Z,26.37
2022-12-16T22:49:36.746Z,25.83
2022-12-16T22:52:23.608Z,26.77
2022-12-16T22:55:10.936Z,27.00
2022-12-16T22:57:56.840Z,26.63
2022-12-16T23:00:43.020Z,27.70
2022-12-16T23:03:34.035Z,25.37
2022-12-16T23:06:20.580Z,26.30
2022-12-16T23:09:09.781Z,26.87
2022-12-16T23:11:59.063Z,27.70
2022-12-16T23:14:45.382Z,25.00
2022-12-16T23:17:32.099Z,26.07
2022-12-16T23:20:18.058Z,25.77
2022-12-16T23:23:04.663Z,24.83
2022-12-16T23:25:50.653Z,26.77
2022-12-16T23:28:38.902Z,24.40
2022-12-16T23:31:24.930Z,25.80
2022-12-16T23:34:12.328Z,26.77
2022-12-16T23:36:58.237Z,25.80
2022-12-16T23:39:44.605Z,26.53
2022-12-16T23:42:30.639Z,25.43
2022-12-16T23:45:18.365Z,26.87
2022-12-16T23:48:04.399Z,25.90
2022-12-16T23:50:51.087Z,25.23
2022-12-16T23:53:37.601Z,24.70
2022-12-16T23:56:24.594Z,26.30
2022-12-16T23:59:10.681Z,25.20
